Time;durP1;ratioP1;P1;durP2;ratioP2;P2;SDS_P1;SDS_P2;PMS_P1;PMS_P2;Temp;Humidity;BMP_temperature;BMP_pressure;BME280_temperature;BME280_humidity;BME280_pressure;Samples;Min_cycle;Max_cycle;Signal;HPM_P1;HPM_P2
2023/04/22 00:01:16;;;;;;;32.80;18.55;;;13.30;99.90;;;;;;4591522;19;20046;-24
2023/04/22 00:02:47;;;;;;;;;;;13.30;99.90;;;;;;4592932;19;20338;-23
2023/04/22 00:04:20;;;;;;;31.07;17.10;;;13.40;99.90;;;;;;4591448;19;19930;-24
2023/04/22 00:05:51;;;;;;;28.67;15.63;;;13.50;99.90;;;;;;4592092;19;20491;-24
2023/04/22 00:07:23;;;;;;;29.20;16.45;;;13.50;99.90;;;;;;4593625;19;20014;-24
2023/04/22 00:08:54;;;;;;;26.13;14.57;;;13.50;99.90;;;;;;4593235;19;20018;-24
2023/04/22 00:10:26;;;;;;;24.17;13.00;;;13.60;99.90;;;;;;4593793;19;20018;-23
2023/04/22 00:11:58;;;;;;;23.80;12.93;;;13.60;99.90;;;;;;4591827;19;20018;-24
2023/04/22 00:13:29;;;;;;;;;;;13.70;99.90;;;;;;4594347;19;20013;-24
2023/04/22 00:15:00;;;;;;;24.77;14.10;;;13.70;99.90;;;;;;4593008;19;19921;-23
2023/04/22 00:16:32;;;;;;;21.77;13.60;;;13.70;99.90;;;;;;4592099;19;20018;-23
2023/04/22 00:18:03;;;;;;;23.50;13.20;;;13.70;99.90;;;;;;4593353;19;20034;-23
2023/04/22 00:19:34;;;;;;;24.38;13.50;;;13.80;99.90;;;;;;4592421;19;20018;-23
2023/04/22 00:21:06;;;;;;;21.92;11.82;;;13.80;99.90;;;;;;4592833;19;20381;-23
2023/04/22 00:22:38;;;;;;;17.20;10.53;;;13.80;99.90;;;;;;4590588;19;20023;-24
2023/04/22 00:24:09;;;;;;;16.48;10.38;;;13.80;99.90;;;;;;4592612;19;20014;-24
2023/04/22 00:25:40;;;;;;;18.58;10.70;;;13.80;99.90;;;;;;4592899;19;20010;-23
2023/04/22 00:27:11;;;;;;;18.48;11.18;;;13.80;99.90;;;;;;4591546;19;20019;-24
2023/04/22 00:28:43;;;;;;;18.40;10.38;;;13.90;99.90;;;;;;4591973;19;20017;-24
2023/04/22 00:30:14;;;;;;;18.77;9.43;;;13.90;99.90;;;;;;4589969;19;20013;-24
2023/04/22 00:31:45;;;;;;;13.30;9.07;;;13.90;99.90;;;;;;4593314;19;20034;-24
2023/04/22 00:33:16;;;;;;;15.25;9.70;;;13.90;99.90;;;;;;4592448;19;20070;-23
2023/04/22 00:34:48;;;;;;;14.30;8.48;;;13.90;99.90;;;;;;4593717;19;20019;-24
2023/04/22 00:36:19;;;;;;;11.38;7.85;;;13.90;99.90;;;;;;4592703;19;20078;-23
2023/04/22 00:37:50;;;;;;;16.20;8.10;;;13.90;99.90;;;;;;4593692;19;20007;-24
2023/04/22 00:39:21;;;;;;;12.70;7.70;;;13.90;99.90;;;;;;4592760;19;20507;-24
2023/04/22 00:40:52;;;;;;;10.85;7.97;;;13.90;99.90;;;;;;4591547;19;20074;-23
2023/04/22 00:42:23;;;;;;;11.80;7.78;;;13.90;99.90;;;;;;4592696;19;20030;-24
2023/04/22 00:43:55;;;;;;;12.13;8.57;;;13.90;99.90;;;;;;4590930;19;20022;-23
2023/04/22 00:45:26;;;;;;;12.70;8.55;;;14.00;99.90;;;;;;4591477;19;20017;-24
2023/04/22 00:46:58;;;;;;;14.32;7.97;;;13.90;99.90;;;;;;4591802;19;20025;-24
2023/04/22 00:48:29;;;;;;;12.63;8.40;;;14.00;99.90;;;;;;4593836;19;20365;-23
2023/04/22 00:50:00;;;;;;;13.52;7.63;;;14.00;99.90;;;;;;4590640;19;20018;-23
2023/04/22 00:51:31;;;;;;;12.30;7.18;;;14.00;99.90;;;;;;4590970;19;20006;-23
2023/04/22 00:53:03;;;;;;;11.68;7.43;;;14.00;99.90;;;;;;4591811;19;20018;-23
2023/04/22 00:54:35;;;;;;;9.45;6.65;;;14.00;99.90;;;;;;4591549;19;20069;-24
2023/04/22 00:56:06;;;;;;;13.87;9.43;;;14.00;99.90;;;;;;4591268;19;20482;-23
2023/04/22 00:57:37;;;;;;;13.40;9.40;;;13.90;99.80;;;;;;4592900;19;20006;-24
2023/04/22 00:59:08;;;;;;;12.23;8.05;;;14.00;99.90;;;;;;4591231;19;20105;-23
2023/04/22 01:00:39;;;;;;;12.25;8.23;;;14.00;99.90;;;;;;4590135;19;20022;-24
2023/04/22 01:02:11;;;;;;;13.93;8.07;;;14.00;99.80;;;;;;4591737;19;20019;-24
2023/04/22 01:03:42;;;;;;;13.50;7.43;;;13.90;99.80;;;;;;4589675;19;20022;-23
2023/04/22 01:05:14;;;;;;;14.57;9.23;;;14.00;99.70;;;;;;4588878;19;20019;-24
2023/04/22 01:06:45;;;;;;;10.60;7.35;;;13.90;99.80;;;;;;4590724;19;20045;-23
2023/04/22 01:08:17;;;;;;;13.45;8.30;;;14.00;99.80;;;;;;4591509;19;20035;-23
2023/04/22 01:09:48;;;;;;;12.90;8.55;;;14.00;99.90;;;;;;4590178;19;20069;-23
2023/04/22 01:11:22;;;;;;;14.57;8.60;;;14.00;99.90;;;;;;4590614;19;20014;-23
2023/04/22 01:12:53;;;;;;;11.37;7.03;;;13.90;99.90;;;;;;4591637;19;20360;-24
2023/04/22 01:14:25;;;;;;;;;;;13.90;99.90;;;;;;4591800;19;20090;-23
2023/04/22 01:15:56;;;;;;;11.30;7.67;;;13.90;99.90;;;;;;4592108;19;19919;-23
2023/04/22 01:17:27;;;;;;;14.15;8.13;;;13.90;99.80;;;;;;4592840;19;20010;-24
2023/04/22 01:18:58;;;;;;;13.52;8.55;;;13.90;99.70;;;;;;4591167;19;20091;-24
2023/04/22 01:20:32;;;;;;;15.47;9.03;;;13.90;99.70;;;;;;4590778;19;20091;-24
2023/04/22 01:22:05;;;;;;;15.23;8.93;;;13.90;99.80;;;;;;4590738;19;20064;-24
2023/04/22 01:23:36;;;;;;;12.98;7.65;;;13.90;99.90;;;;;;4592243;19;20035;-23
2023/04/22 01:25:10;;;;;;;14.63;8.90;;;13.90;99.70;;;;;;4590760;19;20014;-23
2023/04/22 01:26:41;;;;;;;21.27;12.63;;;13.90;99.70;;;;;;4590363;19;20091;-24
2023/04/22 01:28:13;;;;;;;19.80;12.30;;;14.00;99.70;;;;;;4592102;19;20022;-24
2023/04/22 01:29:45;;;;;;;21.93;14.10;;;13.90;99.70;;;;;;4591320;19;20086;-23
2023/04/22 01:31:17;;;;;;;19.45;13.30;;;13.90;99.60;;;;;;4590355;19;20010;-23
2023/04/22 01:32:48;;;;;;;19.17;11.77;;;13.90;99.80;;;;;;4589045;19;20065;-24
2023/04/22 01:34:21;;;;;;;16.63;10.87;;;13.90;99.60;;;;;;4591202;19;20098;-24
2023/04/22 01:35:52;;;;;;;14.27;10.37;;;13.90;99.60;;;;;;4590418;19;20026;-24
2023/04/22 01:37:24;;;;;;;14.87;10.40;;;13.90;99.60;;;;;;4591428;19;20074;-23
2023/04/22 01:38:56;;;;;;;15.93;10.27;;;13.90;99.60;;;;;;4591660;19;20023;-24
2023/04/22 01:40:27;;;;;;;13.63;9.10;;;13.90;99.50;;;;;;4591334;19;20082;-23
2023/04/22 01:42:00;;;;;;;13.47;8.57;;;13.90;99.60;;;;;;4589823;19;20019;-24
2023/04/22 01:43:33;;;;;;;12.40;7.70;;;13.90;99.70;;;;;;4590036;19;20031;-23
2023/04/22 01:45:05;;;;;;;13.98;8.40;;;13.90;99.60;;;;;;4592571;19;20018;-24
2023/04/22 01:46:36;;;;;;;11.95;8.45;;;13.90;99.50;;;;;;4591150;19;20014;-23
2023/04/22 01:48:09;;;;;;;12.53;8.00;;;13.90;99.60;;;;;;4590410;19;20825;-24
2023/04/22 01:49:40;;;;;;;13.13;8.83;;;13.90;99.70;;;;;;4589963;19;20687;-23
2023/04/22 01:51:12;;;;;;;14.47;7.80;;;13.80;99.80;;;;;;4589660;19;20031;-24
2023/04/22 01:52:44;;;;;;;17.10;8.93;;;13.80;99.40;;;;;;4590917;19;20015;-23
2023/04/22 01:54:15;;;;;;;14.35;8.73;;;13.80;99.80;;;;;;4590756;19;20011;-24
2023/04/22 01:55:47;;;;;;;14.43;8.93;;;13.80;99.50;;;;;;4589401;19;20014;-23
2023/04/22 01:57:19;;;;;;;14.37;9.17;;;13.90;99.60;;;;;;4591360;19;20490;-23
2023/04/22 01:58:50;;;;;;;13.90;8.93;;;13.80;99.60;;;;;;4591391;19;20019;-23
2023/04/22 02:00:23;;;;;;;14.23;10.23;;;13.80;99.70;;;;;;4591012;19;20106;-23
2023/04/22 02:01:55;;;;;;;13.07;9.38;;;13.80;99.60;;;;;;4589620;19;20014;-24
2023/04/22 02:03:26;;;;;;;14.65;8.68;;;13.80;99.60;;;;;;4589438;19;20010;-24
2023/04/22 02:04:59;;;;;;;14.80;9.93;;;13.80;99.50;;;;;;4590892;19;20026;-24
2023/04/22 02:06:31;;;;;;;13.13;8.63;;;13.80;99.60;;;;;;4590506;19;20022;-24
2023/04/22 02:08:04;;;;;;;12.70;8.40;;;13.80;99.50;;;;;;4590912;19;20014;-24
2023/04/22 02:09:35;;;;;;;15.02;9.80;;;13.80;99.40;;;;;;4590160;19;20013;-24
2023/04/22 02:11:07;;;;;;;12.95;9.13;;;13.80;99.30;;;;;;4591741;19;20086;-24
2023/04/22 02:12:39;;;;;;;11.67;8.17;;;13.80;99.40;;;;;;4589647;19;20045;-23
2023/04/22 02:14:10;;;;;;;14.75;9.07;;;13.80;99.40;;;;;;4589566;19;20464;-23
2023/04/22 02:15:43;;;;;;;14.63;9.47;;;13.80;99.30;;;;;;4591821;19;20014;-23
2023/04/22 02:17:16;;;;;;;13.90;9.75;;;13.80;99.40;;;;;;4590509;19;20035;-23
2023/04/22 02:18:47;;;;;;;12.50;8.40;;;13.80;99.40;;;;;;4590946;19;20014;-23
2023/04/22 02:20:19;;;;;;;14.57;9.82;;;13.80;99.50;;;;;;4590315;19;20036;-24
2023/04/22 02:21:50;;;;;;;;;;;13.80;99.40;;;;;;4589828;19;20016;-23
2023/04/22 02:23:23;;;;;;;;;;;13.80;99.40;;;;;;4590911;19;20251;-24
2023/04/22 02:24:54;;;;;;;14.65;8.93;;;13.80;99.40;;;;;;4589541;19;19926;-23
2023/04/22 02:26:26;;;;;;;15.43;9.60;;;13.80;99.30;;;;;;4589561;19;20356;-24
2023/04/22 02:27:59;;;;;;;14.67;10.07;;;13.70;99.30;;;;;;4590283;19;20082;-23
2023/04/22 02:29:31;;;;;;;14.43;10.13;;;13.70;99.20;;;;;;4590674;19;20006;-23
2023/04/22 02:31:02;;;;;;;15.35;10.40;;;13.80;99.20;;;;;;4590600;19;20018;-24
2023/04/22 02:32:35;;;;;;;18.75;12.20;;;13.80;99.10;;;;;;4590938;19;20066;-23
2023/04/22 02:34:07;;;;;;;20.27;12.60;;;13.70;99.00;;;;;;4590223;19;20329;-24
2023/04/22 02:35:39;;;;;;;17.57;10.80;;;13.70;99.00;;;;;;4590625;19;20468;-24
2023/04/22 02:37:10;;;;;;;12.57;9.20;;;13.70;99.00;;;;;;4590811;19;20006;-23
2023/04/22 02:38:41;;;;;;;17.63;9.50;;;13.80;99.00;;;;;;4589975;19;20018;-23
2023/04/22 02:40:12;;;;;;;13.00;8.48;;;13.80;99.00;;;;;;4589911;19;20009;-24
2023/04/22 02:41:44;;;;;;;26.47;16.47;;;13.70;98.90;;;;;;4590427;19;20027;-23
2023/04/22 02:43:17;;;;;;;18.70;11.70;;;13.70;99.00;;;;;;4589929;19;20014;-23
2023/04/22 02:44:49;;;;;;;15.63;11.00;;;13.70;99.00;;;;;;4590399;19;20028;-24
2023/04/22 02:46:21;;;;;;;13.33;9.27;;;13.70;98.90;;;;;;4590480;19;20010;-23
2023/04/22 02:47:54;;;;;;;16.33;9.83;;;13.70;98.90;;;;;;4590739;19;20340;-24
2023/04/22 02:49:25;;;;;;;13.25;9.23;;;13.70;98.90;;;;;;4590536;19;20067;-23
2023/04/22 02:50:58;;;;;;;22.23;13.83;;;13.70;98.80;;;;;;4590204;19;20010;-24
2023/04/22 02:52:32;;;;;;;24.27;16.33;;;13.70;98.90;;;;;;4589921;19;20043;-24
2023/04/22 02:54:03;;;;;;;19.70;13.97;;;13.70;99.00;;;;;;4589430;19;20122;-24
2023/04/22 02:55:34;;;;;;;21.08;13.77;;;13.70;98.80;;;;;;4589667;19;20098;-23
2023/04/22 02:57:07;;;;;;;18.17;11.67;;;13.70;98.90;;;;;;4589894;19;20018;-23
2023/04/22 02:58:40;;;;;;;18.63;10.70;;;13.70;99.00;;;;;;4589877;19;20426;-23
2023/04/22 03:00:12;;;;;;;22.25;14.20;;;13.70;99.00;;;;;;4590420;19;20031;-23
2023/04/22 03:01:44;;;;;;;24.27;14.87;;;13.70;98.90;;;;;;4588857;19;20015;-24
2023/04/22 03:03:15;;;;;;;23.77;13.85;;;13.70;98.80;;;;;;4587604;19;20010;-23
2023/04/22 03:04:47;;;;;;;16.33;10.83;;;13.70;99.00;;;;;;4588209;19;20029;-24
2023/04/22 03:06:18;;;;;;;14.45;11.27;;;13.60;99.00;;;;;;4590049;19;20010;-24
2023/04/22 03:07:49;;;;;;;16.05;11.05;;;13.60;99.00;;;;;;4589303;19;20019;-23
2023/04/22 03:09:21;;;;;;;14.57;9.55;;;13.60;98.80;;;;;;4589488;19;20037;-23
2023/04/22 03:10:53;;;;;;;16.47;9.83;;;13.70;98.80;;;;;;4590129;19;20487;-24
2023/04/22 03:12:24;;;;;;;12.35;9.15;;;13.60;98.70;;;;;;4588587;19;20006;-24
2023/04/22 03:13:55;;;;;;;14.15;9.45;;;13.60;98.80;;;;;;4589900;19;20448;-23
2023/04/22 03:15:27;;;;;;;17.98;10.30;;;13.60;98.90;;;;;;4589430;19;20011;-24
2023/04/22 03:16:58;;;;;;;17.73;11.77;;;13.60;98.80;;;;;;4588489;19;20937;-24
2023/04/22 03:18:30;;;;;;;15.07;9.83;;;13.60;98.70;;;;;;4589386;19;20090;-23
2023/04/22 03:20:05;;;;;;;19.20;12.70;;;13.60;98.80;;;;;;4589323;19;20433;-24
2023/04/22 03:21:37;;;;;;;15.73;11.63;;;13.70;98.90;;;;;;4589953;19;20468;-24
2023/04/22 03:23:10;;;;;;;14.73;9.87;;;13.60;98.90;;;;;;4587305;19;20021;-23
2023/04/22 03:24:42;;;;;;;13.13;9.38;;;13.60;98.80;;;;;;4588902;19;20030;-24
2023/04/22 03:26:13;;;;;;;14.10;8.88;;;13.60;98.60;;;;;;4588869;19;20467;-22
2023/04/22 03:27:46;;;;;;;14.20;8.40;;;13.60;98.70;;;;;;4589572;19;20356;-23
2023/04/22 03:29:18;;;;;;;13.37;8.07;;;13.60;98.80;;;;;;4589906;19;20002;-23
2023/04/22 03:30:50;;;;;;;14.82;8.23;;;13.60;98.80;;;;;;4589724;19;20009;-24
2023/04/22 03:32:21;;;;;;;11.38;7.97;;;13.60;98.80;;;;;;4589581;19;20010;-23
2023/04/22 03:33:52;;;;;;;12.07;8.07;;;13.60;98.70;;;;;;4594427;19;20021;-23
2023/04/22 03:35:23;;;;;;;12.25;8.63;;;13.60;98.80;;;;;;4594065;19;20017;-24
2023/04/22 03:36:55;;;;;;;11.27;7.17;;;13.50;98.80;;;;;;4594155;19;20042;-23
2023/04/22 03:38:26;;;;;;;12.60;8.60;;;13.50;98.70;;;;;;4592868;19;20006;-23
2023/04/22 03:39:58;;;;;;;25.90;10.57;;;13.50;98.70;;;;;;4593504;19;20021;-24
2023/04/22 03:41:30;;;;;;;14.73;8.10;;;13.50;98.60;;;;;;4594434;19;20029;-24
2023/04/22 03:43:02;;;;;;;;;;;13.50;98.60;;;;;;4594232;19;20512;-24
2023/04/22 03:44:34;;;;;;;14.07;8.40;;;13.50;98.50;;;;;;4593761;19;20286;-23
2023/04/22 03:46:06;;;;;;;23.58;14.82;;;13.50;98.50;;;;;;4593928;19;20015;-23
2023/04/22 03:47:37;;;;;;;;;;;13.50;98.60;;;;;;4593549;19;20018;-24
2023/04/22 03:49:08;;;;;;;18.33;10.33;;;13.60;98.70;;;;;;4593203;19;19922;-24
2023/04/22 03:50:40;;;;;;;16.92;8.60;;;13.60;98.50;;;;;;4592462;19;20015;-24
2023/04/22 03:52:13;;;;;;;14.50;9.07;;;13.60;98.50;;;;;;4594370;19;20006;-23
2023/04/22 03:53:44;;;;;;;14.02;8.18;;;13.70;98.50;;;;;;4593952;19;20009;-24
2023/04/22 03:55:19;;;;;;;12.03;8.10;;;13.70;98.50;;;;;;4593611;19;20014;-24
2023/04/22 03:57:10;;;;;;;16.97;10.60;;;13.70;98.30;;;;;;4593750;19;20022;-23
2023/04/22 03:58:41;;;;;;;17.43;11.03;;;13.70;98.30;;;;;;4593672;19;20014;-24
2023/04/22 04:00:13;;;;;;;14.70;10.50;;;13.80;98.30;;;;;;4594395;19;20020;-24
2023/04/22 04:01:45;;;;;;;;;;;13.80;98.30;;;;;;4594287;19;20025;-24
2023/04/22 04:03:16;;;;;;;16.23;9.90;;;13.80;98.40;;;;;;4592178;19;20232;-23
2023/04/22 04:04:48;;;;;;;19.97;12.23;;;13.80;98.30;;;;;;4592637;19;20022;-23
2023/04/22 04:06:19;;;;;;;20.52;12.57;;;13.80;98.30;;;;;;4593560;19;20003;-23
2023/04/22 04:07:50;;;;;;;14.90;10.10;;;13.80;98.30;;;;;;4593026;19;20374;-24
2023/04/22 04:09:22;;;;;;;15.70;9.30;;;13.80;98.30;;;;;;4593344;19;20033;-24
2023/04/22 04:10:56;;;;;;;14.17;9.77;;;13.80;98.30;;;;;;4593803;19;20018;-23
2023/04/22 04:12:27;;;;;;;17.40;10.10;;;13.90;98.40;;;;;;4593339;19;20017;-24
2023/04/22 04:13:59;;;;;;;17.83;9.63;;;13.80;98.40;;;;;;4593100;19;20033;-24
2023/04/22 04:15:31;;;;;;;17.55;9.05;;;13.90;98.60;;;;;;4593544;19;20479;-24
2023/04/22 04:17:04;;;;;;;15.03;9.20;;;13.80;98.40;;;;;;4593535;19;20010;-24
2023/04/22 04:18:36;;;;;;;17.40;11.47;;;13.80;98.40;;;;;;4592054;19;20002;-23
2023/04/22 04:20:09;;;;;;;17.37;11.10;;;13.80;98.50;;;;;;4592773;19;20033;-24
2023/04/22 04:21:41;;;;;;;15.05;10.82;;;13.80;98.60;;;;;;4593454;19;20014;-23
2023/04/22 04:23:13;;;;;;;13.43;9.10;;;13.80;98.50;;;;;;4592665;19;20448;-23
2023/04/22 04:24:46;;;;;;;14.57;9.53;;;13.80;98.70;;;;;;4593340;19;20464;-23
2023/04/22 04:26:19;;;;;;;15.03;9.37;;;13.80;98.60;;;;;;4591695;19;20019;-23
2023/04/22 04:27:51;;;;;;;13.77;10.43;;;13.80;98.60;;;;;;4593661;19;20033;-24
2023/04/22 04:29:22;;;;;;;16.88;10.50;;;13.80;98.70;;;;;;4592765;19;20026;-23
2023/04/22 04:30:54;;;;;;;14.77;10.20;;;13.80;98.70;;;;;;4594781;19;20123;-23
2023/04/22 04:32:26;;;;;;;13.20;10.23;;;13.80;98.70;;;;;;4593902;19;20010;-23
2023/04/22 04:33:57;;;;;;;13.83;10.40;;;13.80;98.60;;;;;;4594724;19;20014;-24
2023/04/22 04:35:33;;;;;;;15.47;9.90;;;13.80;98.70;;;;;;4593052;19;20035;-23
2023/04/22 04:37:05;;;;;;;14.73;10.13;;;13.80;98.70;;;;;;4591379;19;20033;-23
2023/04/22 04:38:36;;;;;;;15.82;10.15;;;13.80;98.80;;;;;;4591750;19;20014;-23
2023/04/22 04:40:11;;;;;;;14.53;9.30;;;13.80;98.80;;;;;;4592352;19;20415;-23
2023/04/22 04:41:42;;;;;;;15.57;9.90;;;13.80;98.80;;;;;;4593237;19;20010;-23
2023/04/22 04:43:15;;;;;;;14.90;9.73;;;13.80;98.90;;;;;;4591417;19;20464;-24
2023/04/22 04:44:47;;;;;;;14.25;10.27;;;13.80;99.00;;;;;;4591463;19;20015;-24
2023/04/22 04:46:19;;;;;;;10.93;8.27;;;13.80;99.00;;;;;;4593205;19;20009;-24
2023/04/22 04:47:53;;;;;;;11.00;8.00;;;13.80;98.80;;;;;;4593237;19;20018;-23
2023/04/22 04:49:25;;;;;;;11.27;8.57;;;13.80;98.90;;;;;;4592348;19;20031;-23
2023/04/22 04:50:58;;;;;;;12.17;7.97;;;13.80;98.70;;;;;;4591272;19;20033;-23
2023/04/22 04:52:30;;;;;;;14.63;8.45;;;13.80;98.80;;;;;;4592571;19;20007;-24
2023/04/22 04:54:01;;;;;;;;;;;13.80;98.70;;;;;;4593851;19;20006;-24
2023/04/22 04:55:32;;;;;;;10.40;7.33;;;13.90;98.90;;;;;;4592553;19;19911;-24
2023/04/22 04:57:04;;;;;;;14.52;9.35;;;13.90;98.90;;;;;;4592153;19;20018;-24
2023/04/22 04:58:35;;;;;;;;;;;13.90;98.80;;;;;;4592785;19;20070;-24
2023/04/22 05:00:06;;;;;;;11.57;9.47;;;12.70;98.90;;;;;;4591839;19;19923;-23
2023/04/22 05:01:38;;;;;;;11.80;9.20;;;11.20;99.90;;;;;;4592568;19;20324;-24
2023/04/22 05:03:11;;;;;;;12.23;9.90;;;10.40;99.90;;;;;;4591303;19;20457;-24
2023/04/22 05:04:42;;;;;;;10.90;9.25;;;10.00;99.90;;;;;;4591898;19;20568;-24
2023/04/22 05:06:14;;;;;;;12.77;9.57;;;9.80;99.90;;;;;;4592098;19;20014;-23
2023/04/22 05:07:45;;;;;;;11.98;10.02;;;9.70;99.90;;;;;;4591280;19;20916;-23
2023/04/22 05:09:20;;;;;;;12.07;9.03;;;9.70;99.90;;;;;;4592410;19;20026;-23
2023/04/22 05:10:53;;;;;;;11.07;9.23;;;9.70;99.90;;;;;;4592755;19;20421;-23
2023/04/22 05:12:25;;;;;;;13.23;9.90;;;9.70;99.90;;;;;;4591861;19;20429;-23
2023/04/22 05:13:59;;;;;;;12.57;9.93;;;9.60;99.90;;;;;;4591029;19;20428;-23
2023/04/22 05:15:34;;;;;;;12.37;10.40;;;9.60;99.90;;;;;;4592383;19;20495;-23
2023/04/22 05:17:08;;;;;;;12.10;9.77;;;9.70;99.90;;;;;;4592886;19;21019;-23
2023/04/22 05:18:39;;;;;;;11.18;8.55;;;9.70;99.90;;;;;;4590621;19;20485;-24
2023/04/22 05:20:13;;;;;;;11.87;9.17;;;9.70;99.90;;;;;;4591747;19;20003;-23
2023/04/22 05:21:44;;;;;;;10.57;9.18;;;9.70;99.90;;;;;;4592201;19;20463;-24
2023/04/22 05:23:17;;;;;;;10.43;8.70;;;9.70;99.90;;;;;;4591474;19;20019;-23
2023/04/22 05:24:49;;;;;;;11.05;8.15;;;9.70;99.90;;;;;;4590621;19;20456;-23
2023/04/22 05:26:20;;;;;;;13.23;9.40;;;9.70;99.90;;;;;;4590970;19;20066;-23
2023/04/22 05:27:51;;;;;;;11.32;9.07;;;9.70;99.90;;;;;;4591329;19;20009;-23
2023/04/22 05:29:22;;;;;;;12.10;8.90;;;9.80;99.90;;;;;;4592102;19;19999;-24
2023/04/22 05:30:53;;;;;;;10.65;8.02;;;9.80;99.90;;;;;;4591682;19;20052;-23
2023/04/22 05:32:25;;;;;;;10.87;8.40;;;9.80;99.90;;;;;;4591670;19;20010;-23
2023/04/22 05:33:56;;;;;;;11.63;9.82;;;9.80;99.90;;;;;;4591938;19;21044;-23
2023/04/22 05:35:28;;;;;;;10.90;8.50;;;9.90;99.90;;;;;;4591295;19;20018;-23
2023/04/22 05:37:02;;;;;;;12.67;8.87;;;9.90;99.90;;;;;;4591635;19;20339;-23
2023/04/22 05:38:33;;;;;;;12.10;9.53;;;9.90;99.90;;;;;;4591576;19;20809;-23
2023/04/22 05:40:06;;;;;;;11.07;9.40;;;9.90;99.90;;;;;;4590895;19;20433;-23
2023/04/22 05:41:39;;;;;;;12.23;9.37;;;9.90;99.90;;;;;;4590896;19;20425;-24
2023/04/22 05:43:11;;;;;;;12.00;9.20;;;9.90;99.90;;;;;;4590477;19;20792;-24
2023/04/22 05:44:43;;;;;;;10.03;8.67;;;10.00;99.90;;;;;;4591617;19;20425;-23
2023/04/22 05:46:14;;;;;;;9.85;8.07;;;10.00;99.90;;;;;;4591672;19;20401;-23
2023/04/22 05:47:46;;;;;;;10.48;7.82;;;10.00;99.90;;;;;;4590102;19;20566;-22
2023/04/22 05:49:18;;;;;;;10.67;8.20;;;10.00;99.90;;;;;;4591176;19;20354;-23
2023/04/22 05:50:53;;;;;;;12.10;8.93;;;10.10;99.90;;;;;;4589884;19;20507;-23
2023/04/22 05:52:24;;;;;;;9.87;8.00;;;10.10;99.90;;;;;;4591846;19;20433;-24
2023/04/22 05:53:56;;;;;;;9.83;8.20;;;10.10;99.90;;;;;;4591126;19;20441;-23
2023/04/22 05:55:28;;;;;;;9.50;8.40;;;10.20;99.90;;;;;;4591590;19;20489;-24
2023/04/22 05:56:59;;;;;;;11.18;8.82;;;10.20;99.90;;;;;;4589106;19;20345;-23
2023/04/22 05:58:32;;;;;;;10.83;8.17;;;10.20;99.90;;;;;;4591854;19;20007;-24
2023/04/22 06:00:04;;;;;;;9.52;7.95;;;10.20;99.90;;;;;;4589985;19;20445;-23
2023/04/22 06:01:36;;;;;;;;;;;10.30;99.90;;;;;;4591825;19;20029;-23
2023/04/22 06:03:07;;;;;;;8.97;7.27;;;10.30;99.90;;;;;;4590273;19;19910;-24
2023/04/22 06:04:39;;;;;;;10.70;8.60;;;10.30;99.90;;;;;;4590044;19;20489;-23
2023/04/22 06:06:11;;;;;;;11.32;8.45;;;10.30;99.90;;;;;;4591579;19;20449;-23
2023/04/22 06:07:43;;;;;;;9.87;6.70;;;10.40;99.90;;;;;;4591401;19;20037;-23
2023/04/22 06:09:15;;;;;;;9.03;6.77;;;10.40;99.90;;;;;;4590057;19;20421;-23
2023/04/22 06:10:47;;;;;;;8.30;6.27;;;10.40;99.90;;;;;;4590589;19;20464;-24
2023/04/22 06:12:20;;;;;;;8.30;6.60;;;10.50;99.90;;;;;;4590819;19;20448;-24
2023/04/22 06:13:52;;;;;;;7.97;6.78;;;10.50;99.90;;;;;;4589833;19;20424;-23
2023/04/22 06:15:27;;;;;;;6.83;6.07;;;10.50;99.90;;;;;;4590180;19;20006;-24
2023/04/22 06:16:58;;;;;;;8.02;6.75;;;10.50;99.90;;;;;;4590235;19;20484;-23
2023/04/22 06:18:35;;;;;;;10.83;7.40;;;10.60;99.90;;;;;;4591076;19;20007;-23
2023/04/22 06:20:10;;;;;;;8.13;6.57;;;10.60;99.90;;;;;;4589704;19;20757;-23
2023/04/22 06:21:42;;;;;;;7.57;6.37;;;10.70;99.90;;;;;;4590594;19;21016;-23
2023/04/22 06:23:14;;;;;;;13.20;6.73;;;10.70;99.90;;;;;;4589935;19;20817;-24
2023/04/22 06:24:46;;;;;;;;;;;10.70;99.90;;;;;;4590060;19;20497;-23
2023/04/22 06:26:17;;;;;;;8.50;5.97;;;10.70;99.90;;;;;;4590345;19;20256;-23
2023/04/22 06:27:48;;;;;;;8.40;7.03;;;10.80;99.90;;;;;;4590861;19;20018;-24
2023/04/22 06:29:19;;;;;;;7.75;6.50;;;10.80;99.90;;;;;;4590610;19;20036;-23
2023/04/22 06:30:54;;;;;;;8.93;7.70;;;10.90;99.90;;;;;;4590742;19;20007;-23
2023/04/22 06:32:25;;;;;;;10.17;7.53;;;10.90;99.90;;;;;;4590640;19;20440;-23
2023/04/22 06:33:58;;;;;;;8.15;6.75;;;10.90;99.90;;;;;;4589992;19;20784;-23
2023/04/22 06:35:30;;;;;;;8.33;6.73;;;11.00;99.90;;;;;;4589997;19;20030;-23
2023/04/22 06:37:01;;;;;;;10.23;7.32;;;11.00;99.90;;;;;;4590787;19;20436;-24
2023/04/22 06:38:32;;;;;;;7.60;5.88;;;11.00;99.90;;;;;;4590715;19;20014;-23
2023/04/22 06:40:05;;;;;;;8.47;6.63;;;11.10;99.90;;;;;;4589992;19;20018;-24
2023/04/22 06:41:37;;;;;;;7.47;5.97;;;11.20;99.90;;;;;;4589052;19;20487;-23
2023/04/22 06:43:09;;;;;;;7.03;6.18;;;11.20;99.90;;;;;;4589607;19;20481;-24
2023/04/22 06:44:41;;;;;;;6.80;5.77;;;11.20;99.90;;;;;;4587843;19;20011;-23
2023/04/22 06:46:13;;;;;;;9.27;6.00;;;11.30;99.90;;;;;;4588566;19;20516;-23
2023/04/22 06:47:44;;;;;;;9.85;6.18;;;11.30;99.90;;;;;;4589682;19;20449;-23
2023/04/22 06:49:16;;;;;;;8.50;6.80;;;11.30;99.90;;;;;;4590370;19;20043;-23
2023/04/22 06:50:48;;;;;;;7.93;6.40;;;11.30;99.90;;;;;;4589108;19;20010;-23
2023/04/22 06:52:20;;;;;;;10.48;7.45;;;11.30;99.90;;;;;;4590175;19;20487;-24
2023/04/22 06:53:53;;;;;;;8.80;7.23;;;11.40;99.90;;;;;;4590055;19;20011;-23
2023/04/22 06:55:24;;;;;;;7.00;5.65;;;11.40;99.90;;;;;;4589316;19;20453;-24
2023/04/22 06:56:57;;;;;;;8.37;6.20;;;11.40;99.90;;;;;;4589754;19;20329;-23
2023/04/22 06:58:29;;;;;;;8.83;6.43;;;11.50;99.90;;;;;;4589934;19;20795;-23
2023/04/22 07:00:07;;;;;;;7.00;5.40;;;11.60;99.90;;;;;;4590044;19;20474;-23
2023/04/22 07:01:38;;;;;;;8.87;5.70;;;11.60;99.90;;;;;;4590095;19;20410;-23
2023/04/22 07:03:09;;;;;;;8.23;5.82;;;11.60;99.90;;;;;;4589451;19;20452;-23
2023/04/22 07:04:42;;;;;;;7.07;5.27;;;11.70;99.90;;;;;;4589576;19;20015;-24
2023/04/22 07:06:13;;;;;;;6.55;4.97;;;11.70;99.90;;;;;;4588747;19;20448;-23
2023/04/22 07:07:46;;;;;;;5.97;4.93;;;11.60;99.90;;;;;;4590391;19;20002;-23
2023/04/22 07:09:17;;;;;;;7.57;4.55;;;11.70;99.90;;;;;;4594801;19;20424;-23
2023/04/22 07:10:49;;;;;;;6.45;4.65;;;11.70;99.90;;;;;;4594790;19;20022;-23
2023/04/22 07:12:24;;;;;;;6.83;4.60;;;11.70;99.90;;;;;;4595352;19;20028;-23
2023/04/22 07:13:58;;;;;;;8.10;5.07;;;11.70;99.90;;;;;;4595150;19;20823;-23
2023/04/22 07:15:29;;;;;;;6.55;4.60;;;11.80;99.90;;;;;;4593901;19;20475;-22
2023/04/22 07:17:03;;;;;;;8.20;5.07;;;11.90;99.90;;;;;;4593734;19;20014;-23
2023/04/22 07:18:34;;;;;;;6.07;3.95;;;11.90;99.90;;;;;;4594503;19;20503;-24
2023/04/22 07:20:08;;;;;;;5.97;3.77;;;12.10;99.90;;;;;;4595992;19;20375;-23
2023/04/22 07:21:42;;;;;;;7.50;4.10;;;12.30;99.90;;;;;;4594944;19;20568;-23
2023/04/22 07:23:13;;;;;;;9.68;4.22;;;12.50;99.90;;;;;;4595102;19;20465;-24
2023/04/22 07:24:44;;;;;;;6.72;3.70;;;12.80;99.90;;;;;;4594492;19;20098;-24
2023/04/22 07:26:16;;;;;;;;;;;12.90;99.90;;;;;;4595984;19;20035;-24
2023/04/22 07:27:47;;;;;;;9.20;4.10;;;13.10;99.90;;;;;;4596014;19;19919;-24
2023/04/22 07:29:18;;;;;;;7.28;3.28;;;13.30;99.90;;;;;;4594536;19;20499;-24
2023/04/22 07:30:49;;;;;;;7.90;3.63;;;13.40;99.90;;;;;;4594447;19;20015;-24
2023/04/22 07:32:22;;;;;;;5.43;3.33;;;13.50;99.90;;;;;;4596134;19;20015;-24
2023/04/22 07:33:53;;;;;;;5.53;3.20;;;13.60;99.90;;;;;;4596266;19;20018;-24
2023/04/22 07:35:24;;;;;;;7.00;3.67;;;13.70;99.90;;;;;;4593262;19;20606;-24
2023/04/22 07:36:58;;;;;;;6.57;3.40;;;13.80;99.90;;;;;;4596180;19;20341;-23
2023/04/22 07:38:31;;;;;;;4.77;2.97;;;13.80;99.90;;;;;;4595927;19;20011;-24
2023/04/22 07:40:04;;;;;;;6.07;3.23;;;13.90;99.90;;;;;;4593135;19;20015;-25
2023/04/22 07:41:35;;;;;;;4.83;2.90;;;14.00;99.90;;;;;;4596176;19;20034;-23
2023/04/22 07:43:07;;;;;;;9.10;2.85;;;14.10;99.90;;;;;;4595303;19;20011;-24
2023/04/22 07:44:39;;;;;;;5.77;3.07;;;14.10;99.90;;;;;;4592840;19;20014;-24
2023/04/22 07:46:12;;;;;;;7.03;3.60;;;14.20;99.90;;;;;;4595748;19;20341;-24
2023/04/22 07:47:45;;;;;;;7.73;3.30;;;14.30;99.90;;;;;;4595922;19;20366;-24
2023/04/22 07:49:18;;;;;;;7.17;3.00;;;14.30;99.90;;;;;;4594127;19;20456;-23
2023/04/22 07:50:49;;;;;;;5.20;3.20;;;14.40;99.90;;;;;;4594353;19;20334;-24
2023/04/22 07:52:22;;;;;;;5.37;3.23;;;14.40;99.90;;;;;;4596106;19;20010;-24
2023/04/22 07:56:35;;;;;;;4.77;2.17;;;14.50;99.90;;;;;;4593815;19;20462;-24
2023/04/22 07:58:07;;;;;;;4.27;2.60;;;14.60;99.90;;;;;;4595714;19;20463;-24